sensor_id;sensor_type;location;lat;lon;timestamp;P1;durP1;ratioP1;P2;durP2;ratioP2
3274;SDS011;1649;53.672;10.064;2022-10-18T00:01:50;29.17;;;16.97;;
3274;SDS011;1649;53.672;10.064;2022-10-18T00:04:15;28.83;;;16.00;;
3274;SDS011;1649;53.672;10.064;2022-10-18T00:06:41;27.63;;;15.40;;
3274;SDS011;1649;53.672;10.064;2022-10-18T00:09:06;36.27;;;17.50;;
3274;SDS011;1649;53.672;10.064;2022-10-18T00:11:32;28.03;;;14.60;;
3274;SDS011;1649;53.672;10.064;2022-10-18T00:13:57;31.43;;;16.33;;
3274;SDS011;1649;53.672;10.064;2022-10-18T00:16:23;28.67;;;15.40;;
3274;SDS011;1649;53.672;10.064;2022-10-18T00:18:48;32.90;;;16.60;;
3274;SDS011;1649;53.672;10.064;2022-10-18T00:21:15;37.37;;;16.93;;
3274;SDS011;1649;53.672;10.064;2022-10-18T00:23:42;38.07;;;17.90;;
3274;SDS011;1649;53.672;10.064;2022-10-18T00:26:16;37.63;;;18.60;;
3274;SDS011;1649;53.672;10.064;2022-10-18T00:28:43;35.00;;;18.37;;
3274;SDS011;1649;53.672;10.064;2022-10-18T00:31:19;35.57;;;18.50;;
3274;SDS011;1649;53.672;10.064;2022-10-18T00:33:49;34.27;;;19.13;;
3274;SDS011;1649;53.672;10.064;2022-10-18T00:36:16;37.50;;;17.57;;
3274;SDS011;1649;53.672;10.064;2022-10-18T00:38:42;40.93;;;19.30;;
3274;SDS011;1649;53.672;10.064;2022-10-18T00:41:09;36.17;;;17.30;;
3274;SDS011;1649;53.672;10.064;2022-10-18T00:46:37;36.30;;;18.03;;
3274;SDS011;1649;53.672;10.064;2022-10-18T00:49:05;37.07;;;17.47;;
3274;SDS011;1649;53.672;10.064;2022-10-18T00:51:40;37.80;;;18.83;;
3274;SDS011;1649;53.672;10.064;2022-10-18T00:54:14;37.20;;;19.20;;
3274;SDS011;1649;53.672;10.064;2022-10-18T00:56:42;34.17;;;19.00;;
3274;SDS011;1649;53.672;10.064;2022-10-18T00:59:09;37.40;;;19.33;;
3274;SDS011;1649;53.672;10.064;2022-10-18T01:01:35;43.90;;;18.80;;
3274;SDS011;1649;53.672;10.064;2022-10-18T01:04:00;36.10;;;18.60;;
3274;SDS011;1649;53.672;10.064;2022-10-18T01:06:26;36.03;;;18.40;;
3274;SDS011;1649;53.672;10.064;2022-10-18T01:09:17;39.93;;;19.33;;
3274;SDS011;1649;53.672;10.064;2022-10-18T01:14:46;39.53;;;20.77;;
3274;SDS011;1649;53.672;10.064;2022-10-18T01:17:30;44.30;;;20.43;;
3274;SDS011;1649;53.672;10.064;2022-10-18T01:20:02;40.70;;;19.80;;
3274;SDS011;1649;53.672;10.064;2022-10-18T01:22:54;37.93;;;19.77;;
3274;SDS011;1649;53.672;10.064;2022-10-18T01:25:39;38.33;;;19.60;;
3274;SDS011;1649;53.672;10.064;2022-10-18T01:31:10;37.53;;;19.07;;
3274;SDS011;1649;53.672;10.064;2022-10-18T01:33:45;36.40;;;17.77;;
3274;SDS011;1649;53.672;10.064;2022-10-18T01:36:20;38.17;;;18.23;;
3274;SDS011;1649;53.672;10.064;2022-10-18T01:38:48;38.20;;;19.03;;
3274;SDS011;1649;53.672;10.064;2022-10-18T01:41:17;40.60;;;19.47;;
3274;SDS011;1649;53.672;10.064;2022-10-18T01:43:46;37.90;;;19.10;;
3274;SDS011;1649;53.672;10.064;2022-10-18T01:46:16;39.57;;;20.80;;
3274;SDS011;1649;53.672;10.064;2022-10-18T01:48:45;43.30;;;20.80;;
3274;SDS011;1649;53.672;10.064;2022-10-18T01:51:11;46.53;;;21.47;;
3274;SDS011;1649;53.672;10.064;2022-10-18T01:53:36;40.90;;;20.37;;
3274;SDS011;1649;53.672;10.064;2022-10-18T01:56:19;46.13;;;21.80;;
3274;SDS011;1649;53.672;10.064;2022-10-18T01:59:05;42.07;;;20.97;;
3274;SDS011;1649;53.672;10.064;2022-10-18T02:04:28;50.40;;;22.47;;
3274;SDS011;1649;53.672;10.064;2022-10-18T02:07:05;45.07;;;21.20;;
3274;SDS011;1649;53.672;10.064;2022-10-18T02:09:39;45.23;;;19.87;;
3274;SDS011;1649;53.672;10.064;2022-10-18T02:12:10;46.00;;;21.67;;
3274;SDS011;1649;53.672;10.064;2022-10-18T02:14:39;45.67;;;22.13;;
3274;SDS011;1649;53.672;10.064;2022-10-18T02:17:07;38.83;;;20.50;;
3274;SDS011;1649;53.672;10.064;2022-10-18T02:19:39;54.63;;;23.60;;
3274;SDS011;1649;53.672;10.064;2022-10-18T02:22:09;50.30;;;23.67;;
3274;SDS011;1649;53.672;10.064;2022-10-18T02:24:37;54.57;;;24.40;;
3274;SDS011;1649;53.672;10.064;2022-10-18T02:27:06;45.57;;;21.20;;
3274;SDS011;1649;53.672;10.064;2022-10-18T02:29:32;53.40;;;23.30;;
3274;SDS011;1649;53.672;10.064;2022-10-18T02:32:14;57.07;;;24.50;;
3274;SDS011;1649;53.672;10.064;2022-10-18T02:34:58;56.00;;;23.20;;
3274;SDS011;1649;53.672;10.064;2022-10-18T02:37:38;45.37;;;21.97;;
3274;SDS011;1649;53.672;10.064;2022-10-18T02:40:05;53.50;;;23.30;;
3274;SDS011;1649;53.672;10.064;2022-10-18T02:42:33;57.37;;;24.20;;
3274;SDS011;1649;53.672;10.064;2022-10-18T02:45:11;46.60;;;21.80;;
3274;SDS011;1649;53.672;10.064;2022-10-18T02:47:37;55.13;;;25.17;;
3274;SDS011;1649;53.672;10.064;2022-10-18T02:50:03;52.20;;;24.70;;
3274;SDS011;1649;53.672;10.064;2022-10-18T02:52:29;48.30;;;21.97;;
3274;SDS011;1649;53.672;10.064;2022-10-18T02:54:55;52.67;;;24.13;;
3274;SDS011;1649;53.672;10.064;2022-10-18T02:57:20;73.23;;;25.90;;
3274;SDS011;1649;53.672;10.064;2022-10-18T02:59:45;62.10;;;25.17;;
3274;SDS011;1649;53.672;10.064;2022-10-18T03:02:11;62.70;;;26.10;;
3274;SDS011;1649;53.672;10.064;2022-10-18T03:04:36;53.90;;;25.20;;
3274;SDS011;1649;53.672;10.064;2022-10-18T03:07:02;60.33;;;24.97;;
3274;SDS011;1649;53.672;10.064;2022-10-18T03:09:27;54.97;;;22.93;;
3274;SDS011;1649;53.672;10.064;2022-10-18T03:11:53;55.80;;;23.20;;
3274;SDS011;1649;53.672;10.064;2022-10-18T03:14:18;49.17;;;21.87;;
3274;SDS011;1649;53.672;10.064;2022-10-18T03:16:44;50.70;;;22.50;;
3274;SDS011;1649;53.672;10.064;2022-10-18T03:19:09;49.40;;;23.00;;
3274;SDS011;1649;53.672;10.064;2022-10-18T03:21:35;49.10;;;22.27;;
3274;SDS011;1649;53.672;10.064;2022-10-18T03:24:00;53.77;;;24.47;;
3274;SDS011;1649;53.672;10.064;2022-10-18T03:26:26;56.20;;;23.87;;
3274;SDS011;1649;53.672;10.064;2022-10-18T03:28:52;49.87;;;22.53;;
3274;SDS011;1649;53.672;10.064;2022-10-18T03:31:17;49.13;;;21.37;;
3274;SDS011;1649;53.672;10.064;2022-10-18T03:33:43;45.17;;;21.00;;
3274;SDS011;1649;53.672;10.064;2022-10-18T03:36:08;41.87;;;20.03;;
3274;SDS011;1649;53.672;10.064;2022-10-18T03:38:34;46.33;;;20.40;;
3274;SDS011;1649;53.672;10.064;2022-10-18T03:40:59;49.17;;;22.20;;
3274;SDS011;1649;53.672;10.064;2022-10-18T03:43:25;46.63;;;21.07;;
3274;SDS011;1649;53.672;10.064;2022-10-18T03:45:50;62.63;;;26.57;;
3274;SDS011;1649;53.672;10.064;2022-10-18T03:48:16;56.47;;;25.77;;
3274;SDS011;1649;53.672;10.064;2022-10-18T03:50:42;56.33;;;25.70;;
3274;SDS011;1649;53.672;10.064;2022-10-18T03:53:07;63.23;;;26.53;;
3274;SDS011;1649;53.672;10.064;2022-10-18T03:55:33;55.30;;;24.47;;
3274;SDS011;1649;53.672;10.064;2022-10-18T03:58:00;77.13;;;27.10;;
3274;SDS011;1649;53.672;10.064;2022-10-18T04:00:25;60.53;;;26.30;;
3274;SDS011;1649;53.672;10.064;2022-10-18T04:02:51;56.10;;;26.17;;
3274;SDS011;1649;53.672;10.064;2022-10-18T04:05:16;62.47;;;26.30;;
3274;SDS011;1649;53.672;10.064;2022-10-18T04:07:42;60.57;;;25.17;;
3274;SDS011;1649;53.672;10.064;2022-10-18T04:10:07;56.10;;;26.13;;
3274;SDS011;1649;53.672;10.064;2022-10-18T04:12:33;57.07;;;26.10;;
3274;SDS011;1649;53.672;10.064;2022-10-18T04:14:58;67.53;;;27.33;;
3274;SDS011;1649;53.672;10.064;2022-10-18T04:17:24;45.47;;;24.27;;
3274;SDS011;1649;53.672;10.064;2022-10-18T04:19:49;49.10;;;23.90;;
3274;SDS011;1649;53.672;10.064;2022-10-18T04:22:15;54.83;;;27.07;;
3274;SDS011;1649;53.672;10.064;2022-10-18T04:24:40;57.83;;;26.07;;
3274;SDS011;1649;53.672;10.064;2022-10-18T04:27:06;51.47;;;23.10;;
3274;SDS011;1649;53.672;10.064;2022-10-18T04:29:32;55.00;;;25.20;;
3274;SDS011;1649;53.672;10.064;2022-10-18T04:31:58;49.33;;;23.30;;
3274;SDS011;1649;53.672;10.064;2022-10-18T04:34:24;57.07;;;25.30;;
3274;SDS011;1649;53.672;10.064;2022-10-18T04:36:49;54.57;;;23.97;;
3274;SDS011;1649;53.672;10.064;2022-10-18T04:39:15;48.07;;;20.90;;
3274;SDS011;1649;53.672;10.064;2022-10-18T04:41:40;49.17;;;23.50;;
3274;SDS011;1649;53.672;10.064;2022-10-18T04:44:06;50.97;;;24.07;;
3274;SDS011;1649;53.672;10.064;2022-10-18T04:46:31;47.40;;;22.60;;
3274;SDS011;1649;53.672;10.064;2022-10-18T04:48:57;49.53;;;23.40;;
3274;SDS011;1649;53.672;10.064;2022-10-18T04:51:25;43.70;;;21.80;;
3274;SDS011;1649;53.672;10.064;2022-10-18T04:53:50;42.83;;;21.47;;
3274;SDS011;1649;53.672;10.064;2022-10-18T04:56:16;41.93;;;20.20;;
3274;SDS011;1649;53.672;10.064;2022-10-18T04:58:41;47.07;;;22.97;;
3274;SDS011;1649;53.672;10.064;2022-10-18T05:01:07;51.00;;;23.77;;
3274;SDS011;1649;53.672;10.064;2022-10-18T05:03:33;55.07;;;24.10;;
3274;SDS011;1649;53.672;10.064;2022-10-18T05:05:58;60.40;;;25.93;;
3274;SDS011;1649;53.672;10.064;2022-10-18T05:08:24;59.60;;;24.80;;
3274;SDS011;1649;53.672;10.064;2022-10-18T05:10:50;54.10;;;24.57;;
3274;SDS011;1649;53.672;10.064;2022-10-18T05:13:15;46.23;;;23.10;;
3274;SDS011;1649;53.672;10.064;2022-10-18T05:15:41;45.30;;;22.60;;
3274;SDS011;1649;53.672;10.064;2022-10-18T05:18:06;47.20;;;23.43;;
3274;SDS011;1649;53.672;10.064;2022-10-18T05:20:32;52.73;;;25.27;;
3274;SDS011;1649;53.672;10.064;2022-10-18T05:22:57;61.63;;;24.33;;
3274;SDS011;1649;53.672;10.064;2022-10-18T05:25:23;49.60;;;23.97;;
3274;SDS011;1649;53.672;10.064;2022-10-18T05:27:48;53.53;;;25.83;;
3274;SDS011;1649;53.672;10.064;2022-10-18T05:30:14;55.57;;;24.27;;
3274;SDS011;1649;53.672;10.064;2022-10-18T05:32:39;53.83;;;23.80;;
3274;SDS011;1649;53.672;10.064;2022-10-18T05:35:05;51.43;;;23.50;;
3274;SDS011;1649;53.672;10.064;2022-10-18T05:37:31;53.77;;;22.77;;
3274;SDS011;1649;53.672;10.064;2022-10-18T05:39:56;54.13;;;23.70;;
3274;SDS011;1649;53.672;10.064;2022-10-18T05:42:22;44.80;;;21.10;;
3274;SDS011;1649;53.672;10.064;2022-10-18T05:44:48;50.67;;;23.60;;
3274;SDS011;1649;53.672;10.064;2022-10-18T05:47:13;46.50;;;23.47;;
3274;SDS011;1649;53.672;10.064;2022-10-18T05:49:39;46.17;;;22.57;;
3274;SDS011;1649;53.672;10.064;2022-10-18T05:52:04;47.80;;;23.20;;
3274;SDS011;1649;53.672;10.064;2022-10-18T05:54:30;50.43;;;22.90;;
3274;SDS011;1649;53.672;10.064;2022-10-18T05:56:55;42.27;;;21.13;;
3274;SDS011;1649;53.672;10.064;2022-10-18T05:59:21;43.90;;;22.63;;
3274;SDS011;1649;53.672;10.064;2022-10-18T06:01:46;44.97;;;20.73;;
3274;SDS011;1649;53.672;10.064;2022-10-18T06:04:12;40.67;;;19.23;;
3274;SDS011;1649;53.672;10.064;2022-10-18T06:06:37;41.13;;;20.37;;
3274;SDS011;1649;53.672;10.064;2022-10-18T06:09:03;47.17;;;19.57;;
3274;SDS011;1649;53.672;10.064;2022-10-18T06:11:30;50.30;;;21.13;;
3274;SDS011;1649;53.672;10.064;2022-10-18T06:13:55;39.40;;;19.50;;
3274;SDS011;1649;53.672;10.064;2022-10-18T06:16:25;42.30;;;19.23;;
3274;SDS011;1649;53.672;10.064;2022-10-18T06:18:52;42.57;;;19.63;;
3274;SDS011;1649;53.672;10.064;2022-10-18T06:21:19;49.10;;;20.77;;
3274;SDS011;1649;53.672;10.064;2022-10-18T06:23:49;42.53;;;18.70;;
3274;SDS011;1649;53.672;10.064;2022-10-18T06:26:16;38.70;;;18.63;;
3274;SDS011;1649;53.672;10.064;2022-10-18T06:28:41;40.60;;;19.77;;
3274;SDS011;1649;53.672;10.064;2022-10-18T06:31:07;41.47;;;18.60;;
3274;SDS011;1649;53.672;10.064;2022-10-18T06:33:34;36.43;;;18.57;;
3274;SDS011;1649;53.672;10.064;2022-10-18T06:36:05;35.43;;;18.10;;
3274;SDS011;1649;53.672;10.064;2022-10-18T06:38:32;39.47;;;18.67;;
3274;SDS011;1649;53.672;10.064;2022-10-18T06:40:58;40.73;;;19.33;;
3274;SDS011;1649;53.672;10.064;2022-10-18T06:43:24;38.67;;;18.03;;
3274;SDS011;1649;53.672;10.064;2022-10-18T06:45:50;40.80;;;18.50;;
3274;SDS011;1649;53.672;10.064;2022-10-18T06:48:16;33.97;;;17.50;;
3274;SDS011;1649;53.672;10.064;2022-10-18T06:50:42;37.00;;;17.30;;
3274;SDS011;1649;53.672;10.064;2022-10-18T06:53:14;35.90;;;17.07;;
3274;SDS011;1649;53.672;10.064;2022-10-18T06:55:39;32.00;;;16.03;;
3274;SDS011;1649;53.672;10.064;2022-10-18T06:58:05;40.33;;;19.27;;
3274;SDS011;1649;53.672;10.064;2022-10-18T07:00:30;34.33;;;16.93;;
3274;SDS011;1649;53.672;10.064;2022-10-18T07:02:56;34.33;;;16.97;;
3274;SDS011;1649;53.672;10.064;2022-10-18T07:05:22;38.10;;;18.50;;
3274;SDS011;1649;53.672;10.064;2022-10-18T07:07:47;36.10;;;17.60;;
3274;SDS011;1649;53.672;10.064;2022-10-18T07:10:13;37.23;;;16.90;;
3274;SDS011;1649;53.672;10.064;2022-10-18T07:12:38;32.63;;;16.27;;
3274;SDS011;1649;53.672;10.064;2022-10-18T07:15:04;37.90;;;17.80;;
3274;SDS011;1649;53.672;10.064;2022-10-18T07:17:30;39.10;;;17.23;;
3274;SDS011;1649;53.672;10.064;2022-10-18T07:19:55;32.57;;;15.97;;
3274;SDS011;1649;53.672;10.064;2022-10-18T07:22:21;38.07;;;17.97;;
3274;SDS011;1649;53.672;10.064;2022-10-18T07:24:46;35.93;;;16.23;;
3274;SDS011;1649;53.672;10.064;2022-10-18T07:27:12;33.80;;;17.17;;
3274;SDS011;1649;53.672;10.064;2022-10-18T07:29:37;37.30;;;16.73;;
3274;SDS011;1649;53.672;10.064;2022-10-18T07:32:03;36.87;;;16.87;;
3274;SDS011;1649;53.672;10.064;2022-10-18T07:34:29;34.10;;;17.60;;
3274;SDS011;1649;53.672;10.064;2022-10-18T07:36:55;37.83;;;15.90;;
3274;SDS011;1649;53.672;10.064;2022-10-18T07:39:20;34.40;;;17.47;;
3274;SDS011;1649;53.672;10.064;2022-10-18T07:41:46;32.50;;;17.10;;
3274;SDS011;1649;53.672;10.064;2022-10-18T07:44:11;27.60;;;15.83;;
3274;SDS011;1649;53.672;10.064;2022-10-18T07:46:37;33.80;;;16.93;;
3274;SDS011;1649;53.672;10.064;2022-10-18T07:49:02;34.10;;;16.87;;
3274;SDS011;1649;53.672;10.064;2022-10-18T07:51:28;31.63;;;16.57;;
3274;SDS011;1649;53.672;10.064;2022-10-18T07:53:56;33.70;;;16.03;;
3274;SDS011;1649;53.672;10.064;2022-10-18T07:56:24;31.20;;;16.77;;
3274;SDS011;1649;53.672;10.064;2022-10-18T07:58:51;33.20;;;15.67;;
3274;SDS011;1649;53.672;10.064;2022-10-18T08:01:18;27.07;;;14.60;;
3274;SDS011;1649;53.672;10.064;2022-10-18T08:03:45;30.23;;;14.40;;
3274;SDS011;1649;53.672;10.064;2022-10-18T08:06:11;31.20;;;14.90;;
3274;SDS011;1649;53.672;10.064;2022-10-18T08:08:38;28.90;;;15.50;;
3274;SDS011;1649;53.672;10.064;2022-10-18T08:11:05;28.13;;;15.40;;
3274;SDS011;1649;53.672;10.064;2022-10-18T08:13:33;27.60;;;14.37;;
3274;SDS011;1649;53.672;10.064;2022-10-18T08:16:02;28.03;;;14.80;;
3274;SDS011;1649;53.672;10.064;2022-10-18T08:18:32;33.87;;;16.20;;
3274;SDS011;1649;53.672;10.064;2022-10-18T08:20:59;29.23;;;15.80;;
3274;SDS011;1649;53.672;10.064;2022-10-18T08:23:25;30.03;;;14.30;;
3274;SDS011;1649;53.672;10.064;2022-10-18T08:25:50;31.90;;;15.37;;
3274;SDS011;1649;53.672;10.064;2022-10-18T08:28:16;32.03;;;15.77;;
3274;SDS011;1649;53.672;10.064;2022-10-18T08:30:41;31.43;;;14.93;;
3274;SDS011;1649;53.672;10.064;2022-10-18T08:33:07;28.83;;;15.10;;
3274;SDS011;1649;53.672;10.064;2022-10-18T08:35:33;31.73;;;15.50;;
3274;SDS011;1649;53.672;10.064;2022-10-18T08:37:58;28.60;;;15.50;;
3274;SDS011;1649;53.672;10.064;2022-10-18T08:40:24;28.93;;;15.73;;
3274;SDS011;1649;53.672;10.064;2022-10-18T08:45:53;24.90;;;15.00;;
3274;SDS011;1649;53.672;10.064;2022-10-18T08:48:20;29.43;;;15.90;;
3274;SDS011;1649;53.672;10.064;2022-10-18T08:50:51;27.50;;;15.23;;
3274;SDS011;1649;53.672;10.064;2022-10-18T08:53:25;31.47;;;14.90;;
3274;SDS011;1649;53.672;10.064;2022-10-18T08:55:56;28.30;;;14.77;;
3274;SDS011;1649;53.672;10.064;2022-10-18T08:58:31;30.83;;;15.17;;
3274;SDS011;1649;53.672;10.064;2022-10-18T09:15:10;29.37;;;15.70;;
3274;SDS011;1649;53.672;10.064;2022-10-18T09:23:25;25.57;;;15.50;;
3274;SDS011;1649;53.672;10.064;2022-10-18T09:26:14;25.83;;;14.83;;
3274;SDS011;1649;53.672;10.064;2022-10-18T09:34:23;19.40;;;11.57;;
3274;SDS011;1649;53.672;10.064;2022-10-18T09:36:50;18.90;;;11.60;;
3274;SDS011;1649;53.672;10.064;2022-10-18T09:39:24;22.90;;;12.47;;
3274;SDS011;1649;53.672;10.064;2022-10-18T09:41:56;21.57;;;12.60;;
3274;SDS011;1649;53.672;10.064;2022-10-18T09:47:11;20.53;;;12.30;;
3274;SDS011;1649;53.672;10.064;2022-10-18T09:49:41;17.63;;;10.20;;
3274;SDS011;1649;53.672;10.064;2022-10-18T09:52:43;19.80;;;9.83;;
3274;SDS011;1649;53.672;10.064;2022-10-18T09:55:17;22.40;;;10.70;;
3274;SDS011;1649;53.672;10.064;2022-10-18T09:57:48;16.73;;;9.10;;
3274;SDS011;1649;53.672;10.064;2022-10-18T10:00:24;15.63;;;9.27;;
3274;SDS011;1649;53.672;10.064;2022-10-18T10:02:53;15.20;;;9.53;;
3274;SDS011;1649;53.672;10.064;2022-10-18T10:05:19;14.27;;;7.90;;
3274;SDS011;1649;53.672;10.064;2022-10-18T10:07:46;17.03;;;9.20;;
3274;SDS011;1649;53.672;10.064;2022-10-18T10:10:13;14.60;;;8.67;;
3274;SDS011;1649;53.672;10.064;2022-10-18T10:12:43;16.70;;;9.50;;
3274;SDS011;1649;53.672;10.064;2022-10-18T10:17:52;18.03;;;10.07;;
3274;SDS011;1649;53.672;10.064;2022-10-18T10:20:20;18.20;;;9.70;;
3274;SDS011;1649;53.672;10.064;2022-10-18T10:22:47;18.53;;;9.67;;
3274;SDS011;1649;53.672;10.064;2022-10-18T10:25:18;16.67;;;8.20;;
3274;SDS011;1649;53.672;10.064;2022-10-18T10:27:52;19.00;;;8.10;;
3274;SDS011;1649;53.672;10.064;2022-10-18T10:30:22;17.03;;;10.00;;
3274;SDS011;1649;53.672;10.064;2022-10-18T10:32:51;16.60;;;9.10;;
3274;SDS011;1649;53.672;10.064;2022-10-18T10:35:28;16.30;;;9.10;;
3274;SDS011;1649;53.672;10.064;2022-10-18T10:37:59;15.07;;;8.90;;
3274;SDS011;1649;53.672;10.064;2022-10-18T10:40:25;16.73;;;8.87;;
3274;SDS011;1649;53.672;10.064;2022-10-18T10:43:03;20.70;;;11.43;;
3274;SDS011;1649;53.672;10.064;2022-10-18T10:45:32;17.23;;;9.77;;
3274;SDS011;1649;53.672;10.064;2022-10-18T10:48:11;18.47;;;9.80;;
3274;SDS011;1649;53.672;10.064;2022-10-18T10:50:52;17.80;;;9.50;;
3274;SDS011;1649;53.672;10.064;2022-10-18T10:53:28;15.73;;;9.70;;
3274;SDS011;1649;53.672;10.064;2022-10-18T10:55:56;20.10;;;10.07;;
3274;SDS011;1649;53.672;10.064;2022-10-18T10:58:23;18.47;;;9.77;;
3274;SDS011;1649;53.672;10.064;2022-10-18T11:00:51;21.97;;;9.57;;
3274;SDS011;1649;53.672;10.064;2022-10-18T11:03:18;18.77;;;9.87;;
3274;SDS011;1649;53.672;10.064;2022-10-18T11:05:46;18.17;;;9.83;;
3274;SDS011;1649;53.672;10.064;2022-10-18T11:08:14;17.97;;;9.57;;
3274;SDS011;1649;53.672;10.064;2022-10-18T11:10:49;24.03;;;9.83;;
3274;SDS011;1649;53.672;10.064;2022-10-18T11:13:23;16.60;;;9.37;;
3274;SDS011;1649;53.672;10.064;2022-10-18T11:16:11;21.57;;;9.20;;
3274;SDS011;1649;53.672;10.064;2022-10-18T11:18:46;19.10;;;9.77;;
3274;SDS011;1649;53.672;10.064;2022-10-18T11:21:19;18.63;;;8.63;;
3274;SDS011;1649;53.672;10.064;2022-10-18T11:23:49;13.70;;;8.57;;
3274;SDS011;1649;53.672;10.064;2022-10-18T11:26:48;18.40;;;9.00;;
3274;SDS011;1649;53.672;10.064;2022-10-18T11:29:34;15.00;;;7.53;;
3274;SDS011;1649;53.672;10.064;2022-10-18T11:32:28;14.73;;;9.67;;
3274;SDS011;1649;53.672;10.064;2022-10-18T11:38:13;15.80;;;6.13;;
3274;SDS011;1649;53.672;10.064;2022-10-18T11:43:50;13.93;;;5.20;;
3274;SDS011;1649;53.672;10.064;2022-10-18T12:05:39;10.60;;;3.73;;
3274;SDS011;1649;53.672;10.064;2022-10-18T12:08:08;10.90;;;3.93;;
3274;SDS011;1649;53.672;10.064;2022-10-18T12:10:48;12.93;;;3.80;;
3274;SDS011;1649;53.672;10.064;2022-10-18T12:13:22;8.73;;;3.20;;
3274;SDS011;1649;53.672;10.064;2022-10-18T12:16:04;10.87;;;3.70;;
3274;SDS011;1649;53.672;10.064;2022-10-18T12:18:32;15.30;;;3.27;;
3274;SDS011;1649;53.672;10.064;2022-10-18T12:21:00;9.80;;;3.30;;
3274;SDS011;1649;53.672;10.064;2022-10-18T12:26:13;9.90;;;2.50;;
3274;SDS011;1649;53.672;10.064;2022-10-18T12:28:43;10.40;;;2.40;;
3274;SDS011;1649;53.672;10.064;2022-10-18T12:33:51;11.47;;;2.63;;
3274;SDS011;1649;53.672;10.064;2022-10-18T12:38:47;13.23;;;3.40;;
3274;SDS011;1649;53.672;10.064;2022-10-18T12:41:19;10.60;;;2.33;;
3274;SDS011;1649;53.672;10.064;2022-10-18T12:43:57;11.40;;;2.93;;
3274;SDS011;1649;53.672;10.064;2022-10-18T12:49:16;10.90;;;1.97;;
3274;SDS011;1649;53.672;10.064;2022-10-18T12:51:49;9.90;;;2.13;;
3274;SDS011;1649;53.672;10.064;2022-10-18T12:54:17;7.30;;;2.07;;
3274;SDS011;1649;53.672;10.064;2022-10-18T12:56:47;9.60;;;2.00;;
3274;SDS011;1649;53.672;10.064;2022-10-18T13:12:41;12.03;;;2.20;;
3274;SDS011;1649;53.672;10.064;2022-10-18T13:17:32;9.77;;;2.20;;
3274;SDS011;1649;53.672;10.064;2022-10-18T13:23:07;9.87;;;1.70;;
3274;SDS011;1649;53.672;10.064;2022-10-18T13:31:07;7.67;;;1.77;;
3274;SDS011;1649;53.672;10.064;2022-10-18T13:33:39;8.80;;;1.57;;
3274;SDS011;1649;53.672;10.064;2022-10-18T13:36:24;12.60;;;2.30;;
3274;SDS011;1649;53.672;10.064;2022-10-18T13:41:27;8.80;;;1.60;;
3274;SDS011;1649;53.672;10.064;2022-10-18T13:49:20;14.20;;;2.13;;
3274;SDS011;1649;53.672;10.064;2022-10-18T13:54:36;10.80;;;2.10;;
3274;SDS011;1649;53.672;10.064;2022-10-18T14:03:12;10.20;;;2.10;;
3274;SDS011;1649;53.672;10.064;2022-10-18T14:08:44;7.07;;;1.70;;
3274;SDS011;1649;53.672;10.064;2022-10-18T14:11:21;11.37;;;2.13;;
3274;SDS011;1649;53.672;10.064;2022-10-18T14:14:11;9.60;;;2.23;;
3274;SDS011;1649;53.672;10.064;2022-10-18T14:17:04;10.13;;;2.10;;
3274;SDS011;1649;53.672;10.064;2022-10-18T14:19:41;11.93;;;2.30;;
3274;SDS011;1649;53.672;10.064;2022-10-18T14:22:21;8.83;;;1.70;;
3274;SDS011;1649;53.672;10.064;2022-10-18T14:24:51;8.60;;;1.70;;
3274;SDS011;1649;53.672;10.064;2022-10-18T14:27:22;9.63;;;2.43;;
3274;SDS011;1649;53.672;10.064;2022-10-18T14:29:48;14.97;;;2.10;;
3274;SDS011;1649;53.672;10.064;2022-10-18T14:32:30;10.83;;;2.30;;
3274;SDS011;1649;53.672;10.064;2022-10-18T14:34:56;10.53;;;2.13;;
3274;SDS011;1649;53.672;10.064;2022-10-18T14:37:25;6.43;;;1.90;;
3274;SDS011;1649;53.672;10.064;2022-10-18T14:39:58;9.70;;;1.97;;
3274;SDS011;1649;53.672;10.064;2022-10-18T14:42:25;7.70;;;1.57;;
3274;SDS011;1649;53.672;10.064;2022-10-18T14:44:51;11.90;;;1.77;;
3274;SDS011;1649;53.672;10.064;2022-10-18T14:49:50;8.20;;;2.33;;
3274;SDS011;1649;53.672;10.064;2022-10-18T14:52:19;7.27;;;1.77;;
3274;SDS011;1649;53.672;10.064;2022-10-18T14:54:52;7.57;;;1.60;;
3274;SDS011;1649;53.672;10.064;2022-10-18T14:57:22;8.33;;;1.60;;
3274;SDS011;1649;53.672;10.064;2022-10-18T14:59:52;6.90;;;1.50;;
3274;SDS011;1649;53.672;10.064;2022-10-18T15:02:22;7.57;;;2.03;;
3274;SDS011;1649;53.672;10.064;2022-10-18T15:05:04;7.60;;;1.93;;
3274;SDS011;1649;53.672;10.064;2022-10-18T15:07:43;11.27;;;1.67;;
3274;SDS011;1649;53.672;10.064;2022-10-18T15:10:13;10.50;;;1.83;;
3274;SDS011;1649;53.672;10.064;2022-10-18T15:12:42;12.00;;;2.37;;
3274;SDS011;1649;53.672;10.064;2022-10-18T15:15:21;10.30;;;2.17;;
3274;SDS011;1649;53.672;10.064;2022-10-18T15:17:51;11.00;;;2.33;;
3274;SDS011;1649;53.672;10.064;2022-10-18T15:20:19;9.47;;;1.90;;
3274;SDS011;1649;53.672;10.064;2022-10-18T15:22:51;10.07;;;2.10;;
3274;SDS011;1649;53.672;10.064;2022-10-18T15:25:23;13.00;;;2.10;;
3274;SDS011;1649;53.672;10.064;2022-10-18T15:27:52;7.53;;;1.60;;
3274;SDS011;1649;53.672;10.064;2022-10-18T15:30:24;8.03;;;2.20;;
3274;SDS011;1649;53.672;10.064;2022-10-18T15:32:53;11.53;;;2.40;;
3274;SDS011;1649;53.672;10.064;2022-10-18T15:35:25;8.67;;;2.10;;
3274;SDS011;1649;53.672;10.064;2022-10-18T15:37:54;8.70;;;2.00;;
3274;SDS011;1649;53.672;10.064;2022-10-18T15:42:51;10.97;;;2.07;;
3274;SDS011;1649;53.672;10.064;2022-10-18T15:50:41;9.07;;;2.17;;
3274;SDS011;1649;53.672;10.064;2022-10-18T15:55:56;5.70;;;1.87;;
3274;SDS011;1649;53.672;10.064;2022-10-18T15:58:38;6.43;;;2.00;;
3274;SDS011;1649;53.672;10.064;2022-10-18T16:01:15;8.67;;;2.47;;
3274;SDS011;1649;53.672;10.064;2022-10-18T16:03:46;8.03;;;1.80;;
3274;SDS011;1649;53.672;10.064;2022-10-18T16:06:13;9.73;;;2.30;;
3274;SDS011;1649;53.672;10.064;2022-10-18T16:08:40;9.33;;;2.17;;
3274;SDS011;1649;53.672;10.064;2022-10-18T16:11:17;6.43;;;1.60;;
3274;SDS011;1649;53.672;10.064;2022-10-18T16:13:45;7.87;;;1.70;;
3274;SDS011;1649;53.672;10.064;2022-10-18T16:16:21;8.60;;;1.80;;
3274;SDS011;1649;53.672;10.064;2022-10-18T16:18:49;10.00;;;2.60;;
3274;SDS011;1649;53.672;10.064;2022-10-18T16:21:16;10.17;;;3.00;;
3274;SDS011;1649;53.672;10.064;2022-10-18T16:23:56;8.53;;;2.00;;
3274;SDS011;1649;53.672;10.064;2022-10-18T16:26:22;8.43;;;2.10;;
3274;SDS011;1649;53.672;10.064;2022-10-18T16:28:49;8.80;;;1.90;;
3274;SDS011;1649;53.672;10.064;2022-10-18T16:31:16;7.97;;;2.30;;
3274;SDS011;1649;53.672;10.064;2022-10-18T16:33:47;8.93;;;1.60;;
3274;SDS011;1649;53.672;10.064;2022-10-18T16:36:16;8.17;;;2.00;;
3274;SDS011;1649;53.672;10.064;2022-10-18T16:38:43;7.88;;;1.90;;
3274;SDS011;1649;53.672;10.064;2022-10-18T16:41:09;10.90;;;2.10;;
3274;SDS011;1649;53.672;10.064;2022-10-18T16:43:37;11.93;;;2.50;;
3274;SDS011;1649;53.672;10.064;2022-10-18T16:46:04;10.33;;;2.67;;
3274;SDS011;1649;53.672;10.064;2022-10-18T16:48:30;6.43;;;2.07;;
3274;SDS011;1649;53.672;10.064;2022-10-18T16:50:56;10.23;;;1.90;;
3274;SDS011;1649;53.672;10.064;2022-10-18T16:53:22;12.57;;;2.17;;
3274;SDS011;1649;53.672;10.064;2022-10-18T16:55:52;8.37;;;2.17;;
3274;SDS011;1649;53.672;10.064;2022-10-18T16:58:28;10.50;;;2.33;;
3274;SDS011;1649;53.672;10.064;2022-10-18T17:00:55;12.03;;;2.20;;
3274;SDS011;1649;53.672;10.064;2022-10-18T17:03:21;11.53;;;2.20;;
3274;SDS011;1649;53.672;10.064;2022-10-18T17:05:47;8.83;;;1.57;;
3274;SDS011;1649;53.672;10.064;2022-10-18T17:08:17;9.23;;;2.10;;
3274;SDS011;1649;53.672;10.064;2022-10-18T17:10:52;11.77;;;2.40;;
3274;SDS011;1649;53.672;10.064;2022-10-18T17:13:20;9.20;;;2.20;;